Time;durP1;ratioP1;P1;durP2;ratioP2;P2;SDS_P1;SDS_P2;PMS_P1;PMS_P2;Temp;Humidity;BMP_temperature;BMP_pressure;BME280_temperature;BME280_humidity;BME280_pressure;Samples;Min_cycle;Max_cycle;Signal;HPM_P1;HPM_P2
2023/05/18 00:02:03;;;;;;;;;;;;;;;15.33;77.20;98949.28;5052549;28;19917;-75
2023/05/18 00:04:33;;;;;;;;;;;;;;;15.34;77.05;98950.06;5052734;28;19909;-77
2023/05/18 00:07:02;;;;;;;;;;;;;;;15.32;76.37;98960.13;5052451;28;19908;-74
2023/05/18 00:09:31;;;;;;;;;;;;;;;15.32;76.57;98960.94;5051042;28;19909;-76
2023/05/18 00:11:57;;;;;;;;;;;;;;;15.32;77.09;98960.94;5052399;28;19935;-75
2023/05/18 00:14:22;;;;;;;;;;;;;;;15.29;77.42;98965.91;5052737;28;20405;-77
2023/05/18 00:16:48;;;;;;;;;;;;;;;15.29;76.67;98958.72;5052424;28;19909;-76
2023/05/18 00:19:13;;;;;;;;;;;;;;;15.26;76.69;98967.97;5052521;28;19947;-76
2023/05/18 00:21:40;;;;;;;;;;;;;;;15.26;76.65;98957.31;5052113;28;20310;-76
2023/05/18 00:24:06;;;;;;;;;;;;;;;15.27;76.15;98972.25;5050834;28;20374;-77
2023/05/18 00:26:31;;;;;;;;;;;;;;;15.25;76.21;98973.50;5051331;28;19995;-77
2023/05/18 00:28:56;;;;;;;;;;;;;;;15.27;76.32;98976.75;5052277;28;20313;-75
2023/05/18 00:31:22;;;;;;;;;;;;;;;15.27;76.58;98972.25;5052275;28;19991;-77
2023/05/18 00:33:47;;;;;;;;;;;;;;;15.30;76.34;98962.19;5052327;28;20003;-76
2023/05/18 00:36:12;;;;;;;;;;;;;;;15.29;76.24;98971.22;5051954;28;19909;-76
2023/05/18 00:38:37;;;;;;;;;;;;;;;15.29;76.23;98972.03;5052068;28;20046;-77
2023/05/18 00:41:03;;;;;;;;;;;;;;;15.30;75.75;98972.84;5051860;28;19920;-75
2023/05/18 00:43:28;;;;;;;;;;;;;;;15.24;76.08;98967.38;5052120;28;19993;-76
2023/05/18 00:45:53;;;;;;;;;;;;;;;15.18;76.05;98956.81;5051737;28;19909;-76
2023/05/18 00:48:18;;;;;;;;;;;;;;;15.12;76.38;98958.50;5051868;28;19913;-76
2023/05/18 00:50:44;;;;;;;;;;;;;;;15.10;76.54;98949.13;5051892;28;20003;-76
2023/05/18 00:53:09;;;;;;;;;;;;;;;15.08;76.12;98940.56;5051952;28;19916;-76
2023/05/18 00:55:35;;;;;;;;;;;;;;;15.06;75.70;98948.75;5052027;28;19932;-76
2023/05/18 00:58:01;;;;;;;;;;;;;;;15.01;75.95;98945.16;5051818;28;20309;-75
2023/05/18 01:00:27;;;;;;;;;;;;;;;14.99;76.14;98947.22;5051856;28;19939;-76
2023/05/18 01:02:52;;;;;;;;;;;;;;;14.93;76.48;98949.72;5051818;28;19908;-76
2023/05/18 01:05:18;;;;;;;;;;;;;;;14.93;75.75;98943.59;5051586;28;20377;-76
2023/05/18 01:07:44;;;;;;;;;;;;;;;14.90;76.19;98946.69;5051906;28;19908;-76
2023/05/18 01:10:10;;;;;;;;;;;;;;;14.90;75.84;98954.66;5051496;28;20449;-76
2023/05/18 01:12:42;;;;;;;;;;;;;;;14.85;75.67;98957.94;5051562;28;19908;-77
2023/05/18 01:15:22;;;;;;;;;;;;;;;14.82;75.44;98954.91;5051643;28;21008;-75
2023/05/18 01:17:59;;;;;;;;;;;;;;;14.73;76.04;98957.03;5051644;28;19913;-76
2023/05/18 01:20:32;;;;;;;;;;;;;;;14.69;75.78;98952.38;5051321;28;19904;-76
2023/05/18 01:23:08;;;;;;;;;;;;;;;14.62;76.25;98947.94;5051557;28;19909;-76
2023/05/18 01:25:40;;;;;;;;;;;;;;;14.61;75.93;98956.13;5051615;28;20304;-76
2023/05/18 01:28:08;;;;;;;;;;;;;;;14.59;76.28;98960.84;5051243;28;19924;-76
2023/05/18 01:30:41;;;;;;;;;;;;;;;14.56;75.93;98959.44;5051232;28;19909;-76
2023/05/18 01:33:08;;;;;;;;;;;;;;;14.51;76.12;98956.63;5051320;28;20404;-76
2023/05/18 01:35:33;;;;;;;;;;;;;;;14.48;76.01;98956.25;5051339;28;19909;-76
2023/05/18 01:37:58;;;;;;;;;;;;;;;14.48;75.95;98972.19;5052346;28;19909;-76
2023/05/18 01:40:25;;;;;;;;;;;;;;;14.49;76.50;98974.63;5055211;28;20392;-76
2023/05/18 01:42:55;;;;;;;;;;;;;;;14.54;75.67;98985.41;5055272;28;19916;-76
2023/05/18 01:45:25;;;;;;;;;;;;;;;14.55;76.57;98987.03;5055252;28;20368;-77
2023/05/18 01:47:52;;;;;;;;;;;;;;;14.58;76.20;99004.41;5054983;28;19915;-77
2023/05/18 01:50:21;;;;;;;;;;;;;;;14.59;76.05;99006.03;5055067;28;20313;-76
2023/05/18 01:52:59;;;;;;;;;;;;;;;14.64;76.00;99000.88;5054865;28;19908;-75
2023/05/18 01:55:28;;;;;;;;;;;;;;;14.68;75.67;99002.06;5055280;28;19936;-76
2023/05/18 01:57:54;;;;;;;;;;;;;;;14.69;75.23;99006.34;5055002;28;19908;-77
2023/05/18 02:00:21;;;;;;;;;;;;;;;14.68;75.38;99010.03;5054984;28;20362;-76
2023/05/18 02:02:46;;;;;;;;;;;;;;;14.68;75.52;99015.34;5054798;28;20413;-76
2023/05/18 02:05:12;;;;;;;;;;;;;;;14.68;75.09;99012.69;5054966;28;19909;-76
2023/05/18 02:07:38;;;;;;;;;;;;;;;14.64;75.03;99016.81;5054943;28;20294;-75
2023/05/18 02:10:04;;;;;;;;;;;;;;;14.62;75.23;99016.22;5054721;28;20373;-75
2023/05/18 02:12:30;;;;;;;;;;;;;;;14.61;75.44;99020.72;5054692;28;19909;-75
2023/05/18 02:14:57;;;;;;;;;;;;;;;14.59;75.42;99016.66;5054847;28;19915;-75
2023/05/18 02:17:24;;;;;;;;;;;;;;;14.58;75.55;99023.00;5055015;28;20373;-77
2023/05/18 02:19:50;;;;;;;;;;;;;;;14.60;75.85;99024.41;5054937;28;19931;-75
2023/05/18 02:22:15;;;;;;;;;;;;;;;14.65;75.21;99031.72;5054654;28;20433;-76
2023/05/18 02:24:40;;;;;;;;;;;;;;;14.64;75.75;99027.44;5054809;28;19912;-76
2023/05/18 02:27:05;;;;;;;;;;;;;;;14.59;75.73;99022.78;5054658;28;19988;-75
2023/05/18 02:29:31;;;;;;;;;;;;;;;14.58;75.85;99023.81;5054783;28;19931;-75
2023/05/18 02:31:56;;;;;;;;;;;;;;;14.59;76.07;99027.28;5054489;28;19983;-75
2023/05/18 02:34:23;;;;;;;;;;;;;;;14.60;76.02;99028.91;5054330;28;19908;-75
2023/05/18 02:36:48;;;;;;;;;;;;;;;14.62;75.53;99025.00;5054210;28;19912;-75
2023/05/18 02:39:14;;;;;;;;;;;;;;;14.66;75.70;99028.03;5054120;28;19963;-75
2023/05/18 02:41:39;;;;;;;;;;;;;;;14.70;75.67;99028.41;5053771;28;19919;-75
2023/05/18 02:44:05;;;;;;;;;;;;;;;14.72;75.58;99029.00;5054154;28;19913;-76
2023/05/18 02:46:30;;;;;;;;;;;;;;;14.77;75.61;99043.28;5054455;28;20420;-75
2023/05/18 02:48:56;;;;;;;;;;;;;;;14.78;75.54;99049.41;5053795;28;20013;-76
2023/05/18 02:51:22;;;;;;;;;;;;;;;14.83;75.52;99052.22;5053916;28;19908;-75
2023/05/18 02:53:48;;;;;;;;;;;;;;;14.83;75.79;99057.53;5054432;28;19932;-76
2023/05/18 02:56:14;;;;;;;;;;;;;;;14.84;75.78;99056.50;5054468;28;19913;-75
2023/05/18 02:58:39;;;;;;;;;;;;;;;14.87;75.89;99064.06;5053861;28;20340;-76
2023/05/18 03:01:07;;;;;;;;;;;;;;;14.90;75.32;99055.66;5052780;28;19919;-76
2023/05/18 03:03:35;;;;;;;;;;;;;;;14.92;75.60;99061.56;5053985;28;20385;-77
2023/05/18 03:06:03;;;;;;;;;;;;;;;14.90;75.62;99060.97;5054020;28;19915;-74
2023/05/18 03:08:30;;;;;;;;;;;;;;;14.86;75.90;99054.44;5053820;28;19978;-75
2023/05/18 03:10:55;;;;;;;;;;;;;;;14.85;76.42;99053.63;5054206;28;19908;-76
2023/05/18 03:13:21;;;;;;;;;;;;;;;14.86;76.12;99063.25;5053749;28;20282;-76
2023/05/18 03:15:46;;;;;;;;;;;;;;;14.89;75.44;99065.47;5053541;28;19908;-76
2023/05/18 03:18:12;;;;;;;;;;;;;;;14.91;76.09;99066.09;5053708;28;19909;-75
2023/05/18 03:20:37;;;;;;;;;;;;;;;14.91;75.67;99068.75;5053801;28;19913;-76
2023/05/18 03:23:03;;;;;;;;;;;;;;;14.92;76.01;99069.56;5053677;28;20270;-76
2023/05/18 03:25:29;;;;;;;;;;;;;;;14.96;75.70;99078.72;5053402;28;19908;-76
2023/05/18 03:27:54;;;;;;;;;;;;;;;14.97;76.21;99077.69;5053015;28;19948;-75
2023/05/18 03:30:20;;;;;;;;;;;;;;;14.96;76.72;99073.41;5053293;28;19913;-76
2023/05/18 03:32:46;;;;;;;;;;;;;;;14.97;76.60;99071.56;5053092;28;19908;-77
2023/05/18 03:35:11;;;;;;;;;;;;;;;14.99;76.59;99075.63;5052919;28;20400;-76
2023/05/18 03:37:37;;;;;;;;;;;;;;;15.04;76.55;99082.94;5053051;28;19912;-77
2023/05/18 03:40:12;;;;;;;;;;;;;;;15.06;77.09;99078.22;5053403;28;19984;-76
2023/05/18 03:42:38;;;;;;;;;;;;;;;15.06;76.54;99083.53;5053038;28;19925;-75
2023/05/18 03:45:03;;;;;;;;;;;;;;;15.06;76.11;99078.22;5052968;28;19913;-76
2023/05/18 03:47:28;;;;;;;;;;;;;;;15.05;75.58;99085.38;5052951;28;19946;-76
2023/05/18 03:49:54;;;;;;;;;;;;;;;15.05;76.01;99079.25;5052937;28;19939;-76
2023/05/18 03:52:21;;;;;;;;;;;;;;;15.05;76.62;99082.72;5053006;28;19992;-77
2023/05/18 03:54:49;;;;;;;;;;;;;;;15.06;76.13;99079.03;5052738;28;19915;-77
2023/05/18 03:57:16;;;;;;;;;;;;;;;15.08;76.08;99079.63;5052791;28;19916;-76
2023/05/18 03:59:41;;;;;;;;;;;;;;;15.09;76.30;99081.25;5052906;28;20374;-76
2023/05/18 04:02:07;;;;;;;;;;;;;;;15.08;75.63;99081.47;5052385;28;19992;-76
2023/05/18 04:04:32;;;;;;;;;;;;;;;15.10;75.93;99080.22;5052697;28;19909;-76
2023/05/18 04:07:01;;;;;;;;;;;;;;;15.12;75.84;99083.47;5052598;28;19908;-75
2023/05/18 04:09:27;;;;;;;;;;;;;;;15.12;75.29;99088.81;5052329;28;19931;-77
2023/05/18 04:11:52;;;;;;;;;;;;;;;15.12;76.04;99102.09;5052350;28;19908;-76
2023/05/18 04:14:17;;;;;;;;;;;;;;;15.14;75.77;99102.69;5052452;28;20378;-75
2023/05/18 04:16:42;;;;;;;;;;;;;;;15.19;75.80;99102.84;5052393;28;19908;-77
2023/05/18 04:19:09;;;;;;;;;;;;;;;15.23;75.60;99108.53;5052647;28;19942;-75
2023/05/18 04:21:34;;;;;;;;;;;;;;;15.27;75.04;99109.75;5052559;28;20009;-77
2023/05/18 04:24:03;;;;;;;;;;;;;;;15.30;75.36;99109.31;5052722;28;20405;-77
2023/05/18 04:26:30;;;;;;;;;;;;;;;15.34;75.20;99109.69;5052241;28;20400;-78
2023/05/18 04:28:58;;;;;;;;;;;;;;;15.40;75.35;99119.44;5052066;28;19923;-77
2023/05/18 04:31:25;;;;;;;;;;;;;;;15.47;75.05;99112.19;5050689;28;19909;-74
2023/05/18 04:33:51;;;;;;;;;;;;;;;15.48;74.72;99113.84;5052304;28;20392;-77
2023/05/18 04:36:18;;;;;;;;;;;;;;;15.45;74.90;99120.41;5051221;28;19908;-76
2023/05/18 04:38:43;;;;;;;;;;;;;;;15.32;75.50;99122.38;5051880;28;20385;-77
2023/05/18 04:41:09;;;;;;;;;;;;;;;15.36;75.20;99123.56;5052052;28;19920;-77
2023/05/18 04:43:35;;;;;;;;;;;;;;;15.40;75.05;99130.06;5050628;28;19966;-74
2023/05/18 04:46:00;;;;;;;;;;;;;;;15.49;74.98;99134.09;5051856;28;19909;-77
2023/05/18 04:48:26;;;;;;;;;;;;;;;15.49;74.95;99134.09;5051692;28;20038;-78
2023/05/18 04:50:54;;;;;;;;;;;;;;;15.51;74.62;99129.34;5051868;28;19966;-77
2023/05/18 04:53:20;;;;;;;;;;;;;;;15.52;74.88;99136.31;5051950;28;19908;-77
2023/05/18 04:55:48;;;;;;;;;;;;;;;15.53;74.65;99135.28;5051701;28;20313;-77
2023/05/18 04:58:14;;;;;;;;;;;;;;;15.52;74.38;99138.97;5051766;28;20042;-76
2023/05/18 05:00:39;;;;;;;;;;;;;;;15.53;74.59;99143.25;5051636;28;19959;-76
2023/05/18 05:03:05;;;;;;;;;;;;;;;15.55;74.76;99142.00;5051621;28;19915;-77
2023/05/18 05:05:30;;;;;;;;;;;;;;;15.55;75.06;99135.88;5051745;28;20377;-77
2023/05/18 05:07:56;;;;;;;;;;;;;;;15.56;74.62;99148.13;5051653;28;19909;-76
2023/05/18 05:10:22;;;;;;;;;;;;;;;15.60;74.48;99145.88;5051647;28;19908;-76
2023/05/18 05:12:48;;;;;;;;;;;;;;;15.63;74.38;99148.94;5052370;28;19917;-78
2023/05/18 05:15:13;;;;;;;;;;;;;;;15.64;73.66;99150.56;5055687;28;19909;-78
2023/05/18 05:17:39;;;;;;;;;;;;;;;15.65;73.91;99157.53;5055538;28;19962;-77
2023/05/18 05:20:04;;;;;;;;;;;;;;;15.69;73.64;99152.56;5055464;28;19932;-76
2023/05/18 05:22:30;;;;;;;;;;;;;;;15.71;73.87;99158.50;5055639;28;20309;-77
2023/05/18 05:24:55;;;;;;;;;;;;;;;15.72;73.68;99163.59;5055746;28;19909;-77
2023/05/18 05:27:21;;;;;;;;;;;;;;;15.73;72.94;99165.22;5055383;28;19934;-74
2023/05/18 05:29:47;;;;;;;;;;;;;;;15.75;72.98;99172.97;5055381;28;20381;-74
2023/05/18 05:32:12;;;;;;;;;;;;;;;15.77;72.68;99171.72;5055892;28;19909;-75
2023/05/18 05:34:38;;;;;;;;;;;;;;;15.86;72.97;99181.06;5056110;28;20459;-77
2023/05/18 05:37:03;;;;;;;;;;;;;;;15.90;72.76;99186.75;5064718;28;20378;-76
2023/05/18 05:39:29;;;;;;;;;;;;;;;15.92;71.82;99184.69;5051000;28;19912;-77
2023/05/18 05:41:54;;;;;;;;;;;;;;;15.95;71.58;99186.09;5054863;28;19919;-76
2023/05/18 05:44:19;;;;;;;;;;;;;;;15.98;71.61;99188.31;5055254;28;19909;-76
2023/05/18 05:46:45;;;;;;;;;;;;;;;16.01;71.93;99183.34;5037888;28;19905;-77
2023/05/18 05:49:10;;;;;;;;;;;;;;;16.02;71.33;99184.97;5034968;28;20408;-77
2023/05/18 05:51:35;;;;;;;;;;;;;;;16.02;71.49;99186.81;5049995;28;19918;-76
2023/05/18 05:54:01;;;;;;;;;;;;;;;16.00;71.21;99188.91;5074644;28;19978;-75
2023/05/18 05:56:27;;;;;;;;;;;;;;;16.02;70.94;99195.63;5074929;28;20032;-77
2023/05/18 05:58:52;;;;;;;;;;;;;;;16.01;70.88;99196.66;5055066;28;20004;-77
2023/05/18 06:01:17;;;;;;;;;;;;;;;16.09;70.96;99200.88;5052139;28;19916;-77
2023/05/18 06:03:44;;;;;;;;;;;;;;;16.12;70.52;99195.09;5054645;28;20382;-77
2023/05/18 06:06:09;;;;;;;;;;;;;;;16.14;69.90;99201.03;5055563;28;20384;-76
2023/05/18 06:08:34;;;;;;;;;;;;;;;16.14;70.50;99201.03;5064486;28;19959;-76
2023/05/18 06:10:59;;;;;;;;;;;;;;;16.17;70.67;99204.06;5064016;28;19935;-75
2023/05/18 06:13:25;;;;;;;;;;;;;;;16.25;70.27;99197.63;5057073;28;19965;-75
2023/05/18 06:15:50;;;;;;;;;;;;;;;16.27;70.13;99200.88;5053389;28;19920;-77
2023/05/18 06:18:15;;;;;;;;;;;;;;;16.25;70.07;99207.47;5053764;28;19978;-76
2023/05/18 06:20:40;;;;;;;;;;;;;;;16.32;70.10;99209.00;5054257;28;20015;-75
2023/05/18 06:23:06;;;;;;;;;;;;;;;16.43;69.78;99215.47;5057668;28;20141;-76
2023/05/18 06:25:31;;;;;;;;;;;;;;;16.49;69.00;99218.06;5068950;28;20404;-76
2023/05/18 06:27:56;;;;;;;;;;;;;;;16.56;69.08;99219.81;5053444;28;20556;-77
2023/05/18 06:30:22;;;;;;;;;;;;;;;16.65;68.92;99210.47;5059614;28;20366;-77
2023/05/18 06:32:47;;;;;;;;;;;;;;;16.72;67.98;99224.56;5054480;28;19915;-76
2023/05/18 06:35:14;;;;;;;;;;;;;;;16.77;67.91;99222.03;5054263;28;19921;-76
2023/05/18 06:37:39;;;;;;;;;;;;;;;16.77;67.46;99227.38;5054891;28;20373;-76
2023/05/18 06:40:06;;;;;;;;;;;;;;;16.88;67.70;99218.59;5053895;28;19917;-76
2023/05/18 06:42:31;;;;;;;;;;;;;;;16.99;67.29;99214.34;5046582;28;19920;-76
2023/05/18 06:44:57;;;;;;;;;;;;;;;17.01;66.24;99218.41;5047366;28;20415;-77
2023/05/18 06:47:22;;;;;;;;;;;;;;;17.04;65.67;99217.94;5051601;28;19911;-76
2023/05/18 06:49:47;;;;;;;;;;;;;;;17.13;66.70;99223.81;5050870;28;19999;-78
2023/05/18 06:52:13;;;;;;;;;;;;;;;17.20;66.00;99226.38;5048429;28;19913;-77
2023/05/18 06:54:38;;;;;;;;;;;;;;;17.21;64.86;99230.66;5053660;28;20349;-76
2023/05/18 06:57:03;;;;;;;;;;;;;;;17.25;65.55;99229.97;5044163;28;20486;-77
2023/05/18 06:59:28;;;;;;;;;;;;;;;17.33;65.83;99242.19;5051450;28;19912;-76
2023/05/18 07:01:54;;;;;;;;;;;;;;;17.35;65.47;99238.22;5054840;28;19954;-75
2023/05/18 07:04:19;;;;;;;;;;;;;;;17.35;65.29;99243.56;5073617;28;20350;-76
2023/05/18 07:06:45;;;;;;;;;;;;;;;17.41;65.31;99245.31;5052503;28;19913;-76
2023/05/18 07:09:10;;;;;;;;;;;;;;;17.44;64.57;99244.03;5054793;28;19912;-77
2023/05/18 07:11:36;;;;;;;;;;;;;;;17.47;63.22;99248.94;5057663;28;19919;-76
2023/05/18 07:14:01;;;;;;;;;;;;;;;17.54;62.92;99248.81;5051137;28;19919;-77
2023/05/18 07:16:26;;;;;;;;;;;;;;;17.63;64.46;99250.91;5040699;28;19912;-76
2023/05/18 07:18:52;;;;;;;;;;;;;;;17.68;63.18;99255.59;5059314;28;20377;-78
2023/05/18 07:21:17;;;;;;;;;;;;;;;17.68;61.05;99258.28;5058500;28;20351;-75
2023/05/18 07:23:42;;;;;;;;;;;;;;;17.73;64.52;99266.41;5051054;28;20348;-76
2023/05/18 07:26:09;;;;;;;;;;;;;;;17.66;62.14;99263.00;5055356;28;19912;-76
2023/05/18 07:28:35;;;;;;;;;;;;;;;17.70;62.42;99267.66;5050149;28;20000;-75
2023/05/18 07:31:00;;;;;;;;;;;;;;;17.72;61.44;99260.25;5054098;28;20011;-76
2023/05/18 07:33:25;;;;;;;;;;;;;;;17.80;61.94;99261.75;5054515;28;20373;-77
2023/05/18 07:35:51;;;;;;;;;;;;;;;17.88;61.89;99266.78;5055940;28;20440;-77
2023/05/18 07:38:16;;;;;;;;;;;;;;;17.96;62.92;99266.44;5056077;28;20349;-76
2023/05/18 07:40:41;;;;;;;;;;;;;;;17.94;60.56;99265.03;5056053;28;20364;-77
2023/05/18 07:43:06;;;;;;;;;;;;;;;18.02;60.61;99275.38;5052119;28;19996;-76
2023/05/18 07:45:32;;;;;;;;;;;;;;;18.11;58.44;99268.63;5043173;28;20348;-76
2023/05/18 07:47:57;;;;;;;;;;;;;;;18.20;61.81;99269.91;5045214;28;19909;-76
2023/05/18 07:50:22;;;;;;;;;;;;;;;18.16;61.20;99267.94;5046472;28;19912;-76
2023/05/18 07:52:48;;;;;;;;;;;;;;;18.18;56.54;99277.34;5053188;28;19913;-76
2023/05/18 07:55:13;;;;;;;;;;;;;;;18.22;57.61;99281.16;5048448;28;20293;-77
2023/05/18 07:57:38;;;;;;;;;;;;;;;18.29;57.27;99281.03;5054795;28;20019;-76
2023/05/18 08:00:05;;;;;;;;;;;;;;;18.36;56.90;99279.06;5049232;28;19913;-77
2023/05/18 08:02:31;;;;;;;;;;;;;;;18.32;57.96;99289.41;5068700;28;20476;-76
2023/05/18 08:04:56;;;;;;;;;;;;;;;18.33;56.92;99290.22;5061375;28;20004;-75
2023/05/18 08:07:25;;;;;;;;;;;;;;;18.35;56.24;99294.28;5068428;28;19916;-77
2023/05/18 08:09:50;;;;;;;;;;;;;;;18.38;58.91;99293.81;5046029;28;19966;-76
2023/05/18 08:12:15;;;;;;;;;;;;;;;18.35;57.58;99290.81;5050497;28;19983;-77
2023/05/18 08:14:41;;;;;;;;;;;;;;;18.34;56.92;99287.31;5050239;28;19927;-76
2023/05/18 08:17:06;;;;;;;;;;;;;;;18.37;58.83;99302.88;5052531;28;19912;-77
2023/05/18 08:19:31;;;;;;;;;;;;;;;18.33;56.44;99291.03;5055205;28;19913;-76
2023/05/18 08:21:56;;;;;;;;;;;;;;;18.30;56.44;99298.72;5051703;28;19917;-75
2023/05/18 08:24:22;;;;;;;;;;;;;;;18.29;57.91;99313.13;5049036;28;19912;-76
2023/05/18 08:26:47;;;;;;;;;;;;;;;18.33;59.27;99307.06;5064118;28;20397;-76
2023/05/18 08:29:12;;;;;;;;;;;;;;;18.34;57.37;99314.03;5050840;28;19949;-77
2023/05/18 08:31:38;;;;;;;;;;;;;;;18.36;56.69;99311.94;5037924;28;20006;-77
2023/05/18 08:34:04;;;;;;;;;;;;;;;18.35;56.79;99309.50;5051196;28;19912;-77
2023/05/18 08:36:33;;;;;;;;;;;;;;;18.30;56.41;99315.56;5072097;28;19908;-78
2023/05/18 08:38:59;;;;;;;;;;;;;;;18.27;57.22;99317.88;5070309;28;19912;-77
2023/05/18 08:41:33;;;;;;;;;;;;;;;18.29;57.65;99324.63;5059422;28;19917;-76
2023/05/18 08:44:05;;;;;;;;;;;;;;;18.30;57.16;99322.75;5044452;28;19960;-76
2023/05/18 08:46:34;;;;;;;;;;;;;;;18.32;57.27;99326.00;5050258;28;19931;-77
2023/05/18 08:49:00;;;;;;;;;;;;;;;18.31;55.80;99319.84;5045448;28;19918;-77
2023/05/18 08:51:27;;;;;;;;;;;;;;;18.30;56.49;99322.75;5051606;28;20274;-77
2023/05/18 08:53:53;;;;;;;;;;;;;;;18.39;55.01;99324.03;5056328;28;19919;-76
2023/05/18 08:56:21;;;;;;;;;;;;;;;18.50;53.86;99327.75;5060692;28;20347;-76
2023/05/18 08:58:48;;;;;;;;;;;;;;;18.45;53.28;99325.78;5059787;28;19912;-77
2023/05/18 09:01:13;;;;;;;;;;;;;;;18.50;54.82;99327.75;5050494;28;19917;-77
2023/05/18 09:03:39;;;;;;;;;;;;;;;18.57;52.58;99329.25;5049175;28;19920;-76
2023/05/18 09:06:05;;;;;;;;;;;;;;;18.64;53.61;99332.66;5051548;28;19912;-77
2023/05/18 09:08:31;;;;;;;;;;;;;;;18.75;54.35;99333.69;5052540;28;19912;-78
2023/05/18 09:10:57;;;;;;;;;;;;;;;18.86;55.13;99332.84;5060721;28;20152;-75
2023/05/18 09:13:23;;;;;;;;;;;;;;;18.90;54.12;99336.66;5054674;28;19913;-76
2023/05/18 09:15:50;;;;;;;;;;;;;;;19.01;56.51;99343.03;5062346;28;19927;-77
2023/05/18 09:18:15;;;;;;;;;;;;;;;18.99;53.40;99337.91;5062714;28;19912;-78
2023/05/18 09:20:40;;;;;;;;;;;;;;;19.00;55.36;99339.53;5061292;28;19912;-77
2023/05/18 09:23:06;;;;;;;;;;;;;;;19.02;53.57;99341.97;5039417;28;19920;-75
2023/05/18 09:25:35;;;;;;;;;;;;;;;19.07;55.02;99336.72;5056421;28;20500;-77
2023/05/18 09:28:02;;;;;;;;;;;;;;;19.10;55.61;99343.47;5056777;28;20386;-77
2023/05/18 09:30:28;;;;;;;;;;;;;;;19.08;53.74;99334.88;5043857;28;19916;-77
2023/05/18 09:32:53;;;;;;;;;;;;;;;19.07;51.05;99335.91;5066521;28;19995;-75
2023/05/18 09:35:18;;;;;;;;;;;;;;;19.11;51.82;99334.38;5049932;28;20122;-75
2023/05/18 09:37:44;;;;;;;;;;;;;;;19.12;53.34;99338.69;5047857;28;19917;-77
2023/05/18 09:40:09;;;;;;;;;;;;;;;19.13;52.91;99343.00;5049635;28;20433;-77
2023/05/18 09:42:38;;;;;;;;;;;;;;;19.16;52.92;99345.19;5045569;28;20464;-75
2023/05/18 09:45:14;;;;;;;;;;;;;;;19.23;52.96;99337.84;5054677;28;20000;-76
2023/05/18 09:47:39;;;;;;;;;;;;;;;19.26;53.94;99348.06;5053014;28;19921;-77
2023/05/18 09:50:05;;;;;;;;;;;;;;;19.33;52.38;99340.72;5049830;28;19917;-76
2023/05/18 09:52:39;;;;;;;;;;;;;;;19.35;51.70;99339.44;5049216;28;19920;-76
2023/05/18 09:55:05;;;;;;;;;;;;;;;19.37;52.07;99341.88;5061918;28;20335;-77
2023/05/18 09:57:30;;;;;;;;;;;;;;;19.42;52.04;99349.19;5061571;28;19916;-76
2023/05/18 10:00:02;;;;;;;;;;;;;;;19.51;49.84;99345.88;5066810;28;20352;-76
2023/05/18 10:02:29;;;;;;;;;;;;;;;19.61;51.45;99346.09;5070904;28;19956;-77
2023/05/18 10:04:56;;;;;;;;;;;;;;;19.66;51.58;99348.03;5071667;28;19994;-76
2023/05/18 10:07:21;;;;;;;;;;;;;;;19.64;51.84;99350.97;5068035;28;19928;-78
2023/05/18 10:09:58;;;;;;;;;;;;;;;19.58;51.89;99346.56;5055288;28;19919;-76
2023/05/18 10:12:24;;;;;;;;;;;;;;;19.51;52.50;99351.22;5061371;28;20000;-77
2023/05/18 10:14:49;;;;;;;;;;;;;;;19.44;50.99;99341.72;5071028;28;20385;-76
2023/05/18 10:17:15;;;;;;;;;;;;;;;19.35;53.76;99343.97;5073225;28;20312;-75
2023/05/18 10:19:41;;;;;;;;;;;;;;;19.28;52.42;99353.97;5072349;28;19912;-76
2023/05/18 10:22:07;;;;;;;;;;;;;;;19.22;51.37;99357.63;5073720;28;19939;-75
2023/05/18 10:24:34;;;;;;;;;;;;;;;19.05;51.40;99366.41;5064342;28;20008;-74
2023/05/18 10:27:01;;;;;;;;;;;;;;;19.01;52.30;99362.56;5061334;28;19935;-76
2023/05/18 10:29:28;;;;;;;;;;;;;;;18.97;51.46;99364.09;5072726;28;20255;-77
2023/05/18 10:31:54;;;;;;;;;;;;;;;18.96;50.94;99362.47;5064469;28;20332;-76
2023/05/18 10:34:23;;;;;;;;;;;;;;;19.01;52.69;99370.59;5061707;28;19913;-76
2023/05/18 10:36:48;;;;;;;;;;;;;;;19.07;50.09;99365.34;5074631;28;19931;-77
2023/05/18 10:39:14;;;;;;;;;;;;;;;19.11;52.26;99374.53;5067598;28;20377;-76
2023/05/18 10:41:40;;;;;;;;;;;;;;;19.16;52.64;99375.44;5054164;28;19912;-74
2023/05/18 10:44:06;;;;;;;;;;;;;;;19.13;49.25;99373.25;5056083;28;19919;-75
2023/05/18 10:46:32;;;;;;;;;;;;;;;19.20;51.74;99378.47;5070093;28;19913;-77
2023/05/18 10:48:57;;;;;;;;;;;;;;;19.18;52.11;99380.56;5055929;28;19909;-76
2023/05/18 10:51:24;;;;;;;;;;;;;;;19.18;51.35;99377.88;5053750;28;19908;-76
2023/05/18 10:53:50;;;;;;;;;;;;;;;19.19;53.13;99382.19;5053817;28;19916;-75
2023/05/18 10:56:15;;;;;;;;;;;;;;;19.21;48.97;99388.13;5071245;28;19912;-75
2023/05/18 10:58:42;;;;;;;;;;;;;;;19.23;50.29;99386.00;5056424;28;19962;-76
2023/05/18 11:01:09;;;;;;;;;;;;;;;19.25;50.84;99383.91;5053305;28;19966;-77
2023/05/18 11:03:34;;;;;;;;;;;;;;;19.20;48.71;99381.13;5060030;28;19913;-77
2023/05/18 11:06:06;;;;;;;;;;;;;;;19.18;49.80;99384.06;5073643;28;19920;-76
2023/05/18 11:08:32;;;;;;;;;;;;;;;19.20;50.82;99389.16;5066802;28;19908;-77
2023/05/18 11:10:59;;;;;;;;;;;;;;;19.20;50.96;99384.63;5066169;28;19916;-76
2023/05/18 11:13:27;;;;;;;;;;;;;;;19.18;49.94;99389.41;5061359;28;19916;-77
2023/05/18 11:15:53;;;;;;;;;;;;;;;19.10;49.44;99383.59;5057838;28;19922;-77
2023/05/18 11:18:18;;;;;;;;;;;;;;;18.99;50.56;99386.09;5059553;28;19913;-77
2023/05/18 11:20:47;;;;;;;;;;;;;;;19.01;51.09;99394.69;5058909;28;19908;-76
2023/05/18 11:23:19;;;;;;;;;;;;;;;19.03;49.10;99391.78;5063827;28;19919;-77
2023/05/18 11:25:47;;;;;;;;;;;;;;;19.05;51.14;99392.34;5052856;28;19916;-76
2023/05/18 11:28:12;;;;;;;;;;;;;;;19.07;51.79;99384.09;5064781;28;20002;-77
2023/05/18 11:30:40;;;;;;;;;;;;;;;19.04;50.04;99390.72;5073099;28;19951;-77
2023/05/18 11:33:37;;;;;;;;;;;;;;;19.05;50.60;99390.50;5068598;28;19904;-76
2023/05/18 11:36:08;;;;;;;;;;;;;;;19.10;51.31;99395.13;5064875;28;19909;-77
2023/05/18 11:38:45;;;;;;;;;;;;;;;19.12;50.59;99389.53;5069657;28;19913;-76
2023/05/18 11:41:26;;;;;;;;;;;;;;;19.17;51.41;99398.47;5072671;28;20007;-76
2023/05/18 11:44:05;;;;;;;;;;;;;;;19.15;51.29;99395.22;5073024;28;19912;-76
2023/05/18 11:46:30;;;;;;;;;;;;;;;19.10;50.04;99402.34;5069425;28;19916;-76
2023/05/18 11:48:56;;;;;;;;;;;;;;;18.94;50.04;99407.38;5071778;28;20389;-77
2023/05/18 11:51:23;;;;;;;;;;;;;;;18.93;51.54;99407.63;5071836;28;20417;-76
2023/05/18 11:53:49;;;;;;;;;;;;;;;18.94;52.34;99407.38;5065121;28;19912;-76
2023/05/18 11:56:14;;;;;;;;;;;;;;;18.93;51.28;99419.13;5070729;28;19962;-76
2023/05/18 11:58:40;;;;;;;;;;;;;;;18.91;52.14;99415.88;5072559;28;19912;-77
2023/05/18 12:01:10;;;;;;;;;;;;;;;18.90;52.92;99422.28;5069844;28;19926;-77
2023/05/18 12:03:35;;;;;;;;;;;;;;;18.82;52.42;99421.81;5059380;28;20314;-77
2023/05/18 12:06:03;;;;;;;;;;;;;;;18.80;51.95;99423.91;5059827;28;19920;-77
2023/05/18 12:08:29;;;;;;;;;;;;;;;18.80;52.25;99429.28;5060031;28;19962;-77
2023/05/18 12:10:56;;;;;;;;;;;;;;;18.83;53.22;99424.25;5070735;28;19916;-76
2023/05/18 12:13:21;;;;;;;;;;;;;;;18.83;52.50;99431.47;5069038;28;19912;-77
2023/05/18 12:15:47;;;;;;;;;;;;;;;18.83;53.20;99424.25;5054676;28;19913;-76
2023/05/18 12:18:13;;;;;;;;;;;;;;;18.80;53.49;99424.72;5062289;28;20046;-76
2023/05/18 12:20:39;;;;;;;;;;;;;;;18.77;53.80;99427.88;5071434;28;19908;-76
2023/05/18 12:23:04;;;;;;;;;;;;;;;18.69;53.93;99433.59;5069897;28;20365;-75
2023/05/18 12:25:29;;;;;;;;;;;;;;;18.67;54.24;99431.13;5072058;28;19915;-77
2023/05/18 12:27:55;;;;;;;;;;;;;;;18.70;54.06;99427.19;5068753;28;20460;-76
2023/05/18 12:30:21;;;;;;;;;;;;;;;18.71;54.41;99426.13;5067191;28;19912;-76
2023/05/18 12:32:47;;;;;;;;;;;;;;;18.73;54.13;99437.41;5071105;28;19940;-76
2023/05/18 12:35:12;;;;;;;;;;;;;;;18.76;52.95;99428.94;5062401;28;20004;-76
2023/05/18 12:37:41;;;;;;;;;;;;;;;18.73;53.58;99426.72;5072161;28;19908;-75
2023/05/18 12:40:07;;;;;;;;;;;;;;;18.70;53.50;99445.91;5070884;28;19921;-76
2023/05/18 12:42:33;;;;;;;;;;;;;;;18.56;53.54;99442.59;5070510;28;19918;-76
2023/05/18 12:44:59;;;;;;;;;;;;;;;18.48;54.95;99450.97;5068906;28;19912;-76